Time;durP1;ratioP1;P1;durP2;ratioP2;P2;SDS_P1;SDS_P2;PMS_P1;PMS_P2;Temp;Humidity;BMP_temperature;BMP_pressure;BME280_temperature;BME280_humidity;BME280_pressure;Samples;Min_cycle;Max_cycle;Signal;HPM_P1;HPM_P2
2020/12/25 00:01:25;;;;;;;15.27;10.27;;;;;;;3.93;85.59;100247.53;5044793;28;20094;-74
2020/12/25 00:03:50;;;;;;;17.35;11.02;;;;;;;3.90;85.83;100243.16;5041362;28;20037;-74
2020/12/25 00:06:16;;;;;;;15.30;9.65;;;;;;;3.95;85.35;100240.59;5041450;28;20041;-74
2020/12/25 00:08:41;;;;;;;12.48;9.20;;;;;;;3.93;85.77;100248.41;5043189;28;20056;-73
2020/12/25 00:11:07;;;;;;;17.88;10.52;;;;;;;3.93;85.56;100244.94;5043948;28;20040;-74
2020/12/25 00:13:32;;;;;;;14.75;9.77;;;;;;;3.96;85.96;100247.59;5043835;28;20032;-73
2020/12/25 00:15:57;;;;;;;15.98;9.68;;;;;;;3.99;85.66;100251.97;5041267;28;20495;-74
2020/12/25 00:18:23;;;;;;;14.80;9.73;;;;;;;4.01;85.51;100250.25;5041177;28;20044;-74
2020/12/25 00:20:49;;;;;;;11.68;8.77;;;;;;;4.04;85.61;100245.09;5043985;28;20033;-74
2020/12/25 00:23:15;;;;;;;17.23;10.18;;;;;;;4.04;85.65;100252.94;5044250;28;20030;-74
2020/12/25 00:25:40;;;;;;;16.75;11.00;;;;;;;4.07;85.42;100255.59;5042636;28;20380;-74
2020/12/25 00:28:05;;;;;;;15.60;10.05;;;;;;;4.11;85.42;100260.91;5041002;28;20041;-74
2020/12/25 00:30:31;;;;;;;15.02;9.48;;;;;;;4.09;85.18;100254.75;5041377;28;20037;-74
2020/12/25 00:32:56;;;;;;;15.48;10.43;;;;;;;4.11;85.46;100255.66;5026312;28;20040;-74
2020/12/25 00:35:21;;;;;;;18.08;10.43;;;;;;;4.16;85.15;100256.59;5044242;28;20048;-74
2020/12/25 00:37:47;;;;;;;16.52;10.50;;;;;;;4.19;85.28;100255.75;5041577;28;20041;-73
2020/12/25 00:40:12;;;;;;;15.05;10.20;;;;;;;4.21;85.09;100264.50;5040767;28;20037;-74
2020/12/25 00:42:37;;;;;;;15.05;9.60;;;;;;;4.22;85.60;100268.88;5041734;28;20042;-74
2020/12/25 00:45:04;;;;;;;15.27;10.30;;;;;;;4.30;85.12;100275.09;5044098;28;20041;-74
2020/12/25 00:47:29;;;;;;;15.85;9.50;;;;;;;4.36;84.73;100274.31;5043788;28;20033;-74
2020/12/25 00:49:54;;;;;;;15.05;10.15;;;;;;;4.36;85.29;100277.81;5031496;28;20036;-74
2020/12/25 00:52:23;;;;;;;15.90;10.05;;;;;;;4.38;84.71;100285.69;5039249;28;20029;-74
2020/12/25 00:54:49;;;;;;;15.57;10.57;;;;;;;4.33;84.50;100280.38;5023116;28;20407;-74
2020/12/25 00:57:17;;;;;;;16.25;9.93;;;;;;;4.24;84.30;100290.66;5018163;28;20041;-74
2020/12/25 01:00:03;;;;;;;15.63;10.05;;;;;;;4.16;84.92;100297.50;5040592;28;20084;-73
2020/12/25 01:02:29;;;;;;;12.88;9.07;;;;;;;4.16;84.76;100301.00;5040060;28;20025;-74
2020/12/25 01:04:55;;;;;;;14.52;8.48;;;;;;;4.20;83.78;100304.56;5043588;28;20044;-74
2020/12/25 01:07:20;;;;;;;14.57;8.43;;;;;;;4.13;83.91;100313.13;5026003;28;20044;-74
2020/12/25 01:09:45;;;;;;;15.98;9.18;;;;;;;4.06;83.89;100312.16;5041111;28;20032;-74
2020/12/25 01:12:11;;;;;;;13.73;9.15;;;;;;;4.08;84.11;100315.66;5039989;28;20052;-74
2020/12/25 01:14:36;;;;;;;12.65;7.93;;;;;;;4.07;84.39;100323.50;5041157;28;20087;-74
2020/12/25 01:17:01;;;;;;;12.18;7.68;;;;;;;4.07;84.58;100319.13;5043532;28;20036;-73
2020/12/25 01:19:27;;;;;;;14.60;9.25;;;;;;;4.09;83.83;100321.78;5043391;28;20105;-74
2020/12/25 01:21:53;;;;;;;14.43;7.95;;;;;;;4.10;83.96;100323.53;5039970;28;20041;-75
2020/12/25 01:24:18;;;;;;;12.35;8.57;;;;;;;4.08;84.54;100327.84;5039647;28;20458;-75
2020/12/25 01:26:44;;;;;;;15.80;9.18;;;;;;;4.07;84.73;100326.97;5042081;28;20120;-75
2020/12/25 01:29:10;;;;;;;14.82;8.68;;;;;;;4.07;84.73;100323.50;5043299;28;20068;-74
2020/12/25 01:31:35;;;;;;;16.30;9.55;;;;;;;4.13;84.63;100332.28;5042199;28;20029;-74
2020/12/25 01:34:01;;;;;;;15.20;8.35;;;;;;;4.17;84.09;100335.84;5039478;28;20373;-74
2020/12/25 01:36:27;;;;;;;16.88;9.88;;;;;;;4.13;84.66;100328.81;5039777;28;20041;-74
2020/12/25 01:38:52;;;;;;;12.45;8.43;;;;;;;4.14;84.29;100330.59;5042999;28;20075;-75
2020/12/25 01:41:17;;;;;;;17.73;9.48;;;;;;;4.14;84.50;100335.81;5040836;28;20108;-74
2020/12/25 01:43:43;;;;;;;14.70;9.40;;;;;;;4.16;84.33;100328.84;5042718;28;20093;-74
2020/12/25 01:46:09;;;;;;;12.80;7.75;;;;;;;4.21;83.84;100336.78;5043091;28;20380;-74
2020/12/25 01:48:36;;;;;;;18.77;8.60;;;;;;;4.15;84.15;100334.94;5007615;28;20039;-74
2020/12/25 01:51:01;;;;;;;15.20;9.40;;;;;;;4.14;84.09;100338.41;5022006;28;20562;-74
2020/12/25 01:53:28;;;;;;;15.30;8.25;;;;;;;4.16;84.91;100329.72;5039276;28;20061;-74
2020/12/25 01:55:54;;;;;;;14.55;8.63;;;;;;;4.18;83.88;100329.75;5039567;28;20034;-74
2020/12/25 01:58:21;;;;;;;14.40;8.63;;;;;;;4.13;83.67;100329.69;5021856;28;20507;-74
2020/12/25 02:00:48;;;;;;;16.42;8.77;;;;;;;4.12;84.25;100333.16;5041775;28;20033;-73
2020/12/25 02:03:18;;;;;;;16.38;9.00;;;;;;;4.14;83.90;100328.84;5042508;28;20033;-74
2020/12/25 02:05:44;;;;;;;14.55;8.02;;;;;;;4.17;84.48;100335.84;5040652;28;20094;-74
2020/12/25 02:08:11;;;;;;;12.65;8.93;;;;;;;4.17;84.07;100334.13;5039550;28;20415;-74
2020/12/25 02:10:37;;;;;;;12.77;8.65;;;;;;;4.18;84.07;100334.97;5040619;28;20631;-74
2020/12/25 02:13:05;;;;;;;15.93;8.98;;;;;;;4.20;84.20;100342.88;5042663;28;20108;-74
2020/12/25 02:15:31;;;;;;;16.73;8.32;;;;;;;4.26;83.67;100337.72;5042262;28;20044;-75
2020/12/25 02:17:56;;;;;;;13.43;7.82;;;;;;;4.24;83.75;100347.25;5039383;28;20087;-74
2020/12/25 02:20:22;;;;;;;12.85;8.43;;;;;;;4.22;83.89;100349.88;5017482;28;20446;-74
2020/12/25 02:22:48;;;;;;;15.20;7.85;;;;;;;4.18;83.67;100343.69;5038934;28;20044;-74
2020/12/25 02:25:13;;;;;;;14.07;6.95;;;;;;;4.20;83.54;100348.97;5039302;28;20036;-74
2020/12/25 02:27:39;;;;;;;11.57;7.25;;;;;;;4.15;83.72;100350.59;5040772;28;20128;-74
2020/12/25 02:30:06;;;;;;;11.70;6.80;;;;;;;4.14;83.10;100341.91;5042605;28;20040;-74
2020/12/25 02:32:32;;;;;;;10.27;6.90;;;;;;;4.10;83.56;100337.47;5041847;28;20057;-74
2020/12/25 02:34:57;;;;;;;13.77;7.35;;;;;;;4.09;83.81;100343.56;5040743;28;20041;-75
2020/12/25 02:37:22;;;;;;;10.85;7.25;;;;;;;4.11;83.81;100352.31;5043138;28;20042;-74
2020/12/25 02:39:48;;;;;;;12.50;6.60;;;;;;;4.11;83.60;100346.19;5041185;28;20033;-74
2020/12/25 02:42:13;;;;;;;12.57;7.38;;;;;;;4.11;83.88;100356.63;5042772;28;20653;-74
2020/12/25 02:44:39;;;;;;;12.82;7.03;;;;;;;4.09;83.45;100358.34;5044218;28;20491;-73
2020/12/25 02:47:04;;;;;;;12.95;7.68;;;;;;;4.04;83.97;100360.00;5046351;28;20116;-73
2020/12/25 02:49:30;;;;;;;12.55;7.45;;;;;;;4.03;83.95;100363.44;5046225;28;20091;-73
2020/12/25 02:51:55;;;;;;;11.73;7.68;;;;;;;4.03;84.10;100364.31;5042822;28;20048;-73
2020/12/25 02:54:20;;;;;;;9.68;6.55;;;;;;;4.01;84.16;100366.06;5042501;28;20045;-72
2020/12/25 02:56:46;;;;;;;14.02;7.00;;;;;;;4.02;83.84;100372.16;5024079;28;20041;-73
2020/12/25 02:59:11;;;;;;;12.57;7.03;;;;;;;4.03;84.28;100376.50;5030608;28;20510;-73
2020/12/25 03:01:36;;;;;;;10.55;7.18;;;;;;;4.03;83.74;100385.22;5043483;28;20030;-73
2020/12/25 03:04:02;;;;;;;13.50;7.10;;;;;;;4.00;84.14;100377.31;5027988;28;20159;-73
2020/12/25 03:06:27;;;;;;;11.52;7.35;;;;;;;4.04;84.30;100387.00;5028310;28;20204;-73
2020/12/25 03:08:52;;;;;;;12.27;5.75;;;;;;;4.06;83.80;100381.78;5024698;28;20526;-73
2020/12/25 03:11:18;;;;;;;9.70;6.35;;;;;;;4.01;83.99;100380.81;5036631;28;20496;-73
2020/12/25 03:13:44;;;;;;;8.93;4.78;;;;;;;4.02;83.74;100387.81;5042020;28;20112;-73
2020/12/25 03:16:09;;;;;;;9.43;4.55;;;;;;;3.99;83.45;100382.53;5018759;28;20103;-73
2020/12/25 03:18:35;;;;;;;6.80;3.95;;;;;;;3.97;83.32;100389.47;5042259;28;20045;-73
2020/12/25 03:21:00;;;;;;;14.63;5.28;;;;;;;3.89;83.18;100398.03;5042348;28;20033;-73
2020/12/25 03:23:25;;;;;;;10.13;4.20;;;;;;;3.90;83.19;100393.69;5020597;28;20041;-72
2020/12/25 03:25:51;;;;;;;6.90;3.72;;;;;;;3.83;83.32;100403.13;5042144;28;20036;-73
2020/12/25 03:28:16;;;;;;;6.65;3.95;;;;;;;3.82;83.19;100396.16;5042074;28;20087;-73
2020/12/25 03:30:41;;;;;;;6.30;3.10;;;;;;;3.79;83.20;100400.44;5043874;28;20041;-74
2020/12/25 03:33:07;;;;;;;5.70;3.15;;;;;;;3.71;83.49;100398.56;5045308;28;20029;-73
2020/12/25 03:35:32;;;;;;;6.50;3.55;;;;;;;3.77;83.07;100400.38;5044800;28;20041;-73
2020/12/25 03:37:57;;;;;;;6.25;3.08;;;;;;;3.71;83.39;100402.91;5033192;28;20106;-73
2020/12/25 03:40:23;;;;;;;7.13;2.88;;;;;;;3.69;83.36;100404.59;5041197;28;20123;-73
2020/12/25 03:42:49;;;;;;;5.55;3.40;;;;;;;3.66;84.26;100404.53;5042127;28;20045;-73
2020/12/25 03:45:14;;;;;;;5.80;2.97;;;;;;;3.70;83.87;100401.16;5026171;28;20029;-72
2020/12/25 03:47:39;;;;;;;5.53;2.80;;;;;;;3.68;83.58;100408.06;5044156;28;20033;-73
2020/12/25 03:50:05;;;;;;;5.55;3.42;;;;;;;3.68;84.07;100411.53;5045142;28;20045;-73
2020/12/25 03:52:30;;;;;;;5.65;3.15;;;;;;;3.76;83.85;100411.69;5044603;28;20021;-73
2020/12/25 03:54:55;;;;;;;5.85;3.20;;;;;;;3.73;84.25;100414.25;5032917;28;20053;-73
2020/12/25 03:57:21;;;;;;;4.90;2.78;;;;;;;3.78;83.65;100423.06;5040648;28;20037;-73
2020/12/25 03:59:46;;;;;;;8.35;3.03;;;;;;;3.69;83.93;100415.94;5042336;28;20044;-73
2020/12/25 04:02:12;;;;;;;6.32;3.20;;;;;;;3.72;83.96;100425.53;5041391;28;20051;-73
2020/12/25 04:04:37;;;;;;;5.20;2.88;;;;;;;3.67;83.80;100419.38;5042641;28;20041;-73
2020/12/25 04:07:02;;;;;;;4.72;2.55;;;;;;;3.61;83.77;100427.94;5044935;28;20044;-72
2020/12/25 04:09:28;;;;;;;5.60;2.80;;;;;;;3.57;84.21;100430.47;5044842;28;20061;-73
2020/12/25 04:11:53;;;;;;;6.80;3.20;;;;;;;3.55;84.00;100435.63;5041336;28;20392;-73
2020/12/25 04:14:19;;;;;;;6.05;2.72;;;;;;;3.60;83.89;100436.63;5040949;28;20515;-73
2020/12/25 04:16:44;;;;;;;6.35;3.40;;;;;;;3.56;84.01;100440.00;5043341;28;20033;-74
2020/12/25 04:19:10;;;;;;;5.18;2.70;;;;;;;3.57;83.89;100439.16;5044660;28;20443;-73
2020/12/25 04:21:36;;;;;;;5.38;2.97;;;;;;;3.55;83.91;100432.16;5025735;28;20628;-73
2020/12/25 04:24:02;;;;;;;5.50;2.92;;;;;;;3.57;84.46;100436.56;5040775;28;20037;-72
2020/12/25 04:26:27;;;;;;;5.22;2.63;;;;;;;3.61;84.54;100440.09;5019866;28;20083;-73
2020/12/25 04:28:52;;;;;;;7.05;2.78;;;;;;;3.63;83.37;100428.84;5040888;28;20128;-73
2020/12/25 04:31:18;;;;;;;5.97;2.58;;;;;;;3.56;83.66;100434.78;5040949;28;20120;-74
2020/12/25 04:33:43;;;;;;;4.82;2.28;;;;;;;3.61;83.60;100434.88;5042598;28;20145;-73
2020/12/25 04:36:08;;;;;;;6.03;3.28;;;;;;;3.59;83.92;100439.19;5044371;28;20041;-73
2020/12/25 04:38:34;;;;;;;6.30;2.78;;;;;;;3.63;83.53;100447.09;5043475;28;20032;-73
2020/12/25 04:41:01;;;;;;;7.50;2.65;;;;;;;3.69;83.68;100446.34;5040780;28;20492;-73
2020/12/25 04:43:27;;;;;;;4.95;2.90;;;;;;;3.64;83.64;100442.75;5040338;28;20045;-73
2020/12/25 04:45:53;;;;;;;5.35;2.65;;;;;;;3.63;83.91;100446.22;5043861;28;20376;-73
2020/12/25 04:48:19;;;;;;;5.35;2.70;;;;;;;3.64;83.72;100443.66;5026335;28;20033;-73
2020/12/25 04:50:44;;;;;;;6.22;2.92;;;;;;;3.65;83.66;100449.75;5041754;28;20373;-73
2020/12/25 04:53:10;;;;;;;5.95;2.40;;;;;;;3.66;83.73;100451.50;5040333;28;20476;-73
2020/12/25 04:55:35;;;;;;;6.53;3.00;;;;;;;3.64;83.46;100461.03;5039916;28;20040;-73
2020/12/25 04:58:00;;;;;;;6.28;2.78;;;;;;;3.61;83.75;100463.59;5033596;28;20043;-73
2020/12/25 05:00:27;;;;;;;7.13;3.40;;;;;;;3.62;84.04;100468.84;5044051;28;20037;-74
2020/12/25 05:02:53;;;;;;;5.75;2.63;;;;;;;3.65;84.22;100470.66;5043465;28;20397;-72
2020/12/25 05:05:28;;;;;;;5.55;2.63;;;;;;;3.65;83.68;100481.09;5043752;28;20033;-73
2020/12/25 05:07:56;;;;;;;5.13;2.53;;;;;;;3.66;83.61;100483.72;5040332;28;20037;-73
2020/12/25 05:10:21;;;;;;;5.30;2.28;;;;;;;3.60;84.08;100480.97;5018104;28;20117;-73
2020/12/25 05:12:47;;;;;;;8.45;2.92;;;;;;;3.61;83.92;100477.50;5038586;28;20603;-73
2020/12/25 05:15:14;;;;;;;5.88;2.20;;;;;;;3.64;83.84;100489.75;5040104;28;20052;-73
2020/12/25 05:17:40;;;;;;;9.00;2.78;;;;;;;3.56;83.94;100480.88;5020543;28;20033;-73
2020/12/25 05:20:06;;;;;;;7.20;2.70;;;;;;;3.56;83.09;100491.31;5040043;28;20120;-73
2020/12/25 05:22:31;;;;;;;5.47;2.70;;;;;;;3.48;83.87;100494.66;5035492;28;20041;-73
2020/12/25 05:25:01;;;;;;;4.60;2.55;;;;;;;3.46;83.87;100492.88;5039930;28;20060;-73
2020/12/25 05:27:27;;;;;;;4.90;2.22;;;;;;;3.43;84.10;100498.91;5040001;28;20057;-73
2020/12/25 05:29:56;;;;;;;5.03;2.00;;;;;;;3.48;83.27;100504.19;5043131;28;20080;-73
2020/12/25 05:32:26;;;;;;;4.28;2.22;;;;;;;3.49;83.31;100508.59;5025311;28;20400;-73
2020/12/25 05:34:54;;;;;;;5.28;2.60;;;;;;;3.43;83.80;100511.03;5040006;28;20103;-72
2020/12/25 05:37:19;;;;;;;4.63;1.85;;;;;;;3.50;84.24;100508.59;5039716;28;20033;-73
2020/12/25 05:39:44;;;;;;;4.72;1.58;;;;;;;3.44;82.80;100508.47;5044492;28;20106;-73
2020/12/25 05:42:10;;;;;;;4.28;1.45;;;;;;;3.41;82.64;100512.75;5024949;28;20037;-73
2020/12/25 05:44:41;;;;;;;3.65;1.50;;;;;;;3.27;82.96;100522.84;5042047;28;20095;-73
2020/12/25 05:47:07;;;;;;;3.78;1.25;;;;;;;3.33;83.30;100530.84;5039669;28;20492;-72
2020/12/25 05:49:33;;;;;;;3.83;1.42;;;;;;;3.39;83.14;100527.47;5040234;28;20407;-73
2020/12/25 05:51:59;;;;;;;3.33;1.73;;;;;;;3.42;82.62;100533.63;5042984;28;20036;-73
2020/12/25 05:54:25;;;;;;;4.53;2.03;;;;;;;3.33;83.15;100533.44;5042710;28;20064;-73
2020/12/25 05:56:55;;;;;;;3.90;2.00;;;;;;;3.32;83.86;100544.72;5021976;28;20124;-73
2020/12/25 05:59:26;;;;;;;3.75;1.95;;;;;;;3.39;83.63;100541.41;5039397;28;20120;-73
2020/12/25 06:01:53;;;;;;;5.28;2.35;;;;;;;3.40;83.47;100550.97;5042580;28;20029;-73
2020/12/25 06:04:20;;;;;;;5.93;2.20;;;;;;;3.39;83.20;100550.97;5042576;28;20048;-73
2020/12/25 06:06:47;;;;;;;5.07;2.60;;;;;;;3.40;83.64;100548.38;5040635;28;20052;-73
2020/12/25 06:09:16;;;;;;;4.60;1.70;;;;;;;3.42;83.56;100551.91;5041431;28;20510;-73
2020/12/25 06:11:45;;;;;;;4.47;1.95;;;;;;;3.38;83.89;100557.00;5047795;28;20033;-73
2020/12/25 06:14:11;;;;;;;3.72;1.92;;;;;;;3.48;83.00;100565.13;5049174;28;20033;-73
2020/12/25 06:16:39;;;;;;;4.57;2.38;;;;;;;3.44;83.47;100560.66;5048368;28;20055;-73
2020/12/25 06:19:16;;;;;;;4.70;2.30;;;;;;;3.47;82.90;100572.88;5045892;28;20043;-72
2020/12/25 06:22:00;;;;;;;4.43;2.30;;;;;;;3.47;83.13;100581.59;5047632;28;20029;-73
2020/12/25 06:24:31;;;;;;;4.75;1.80;;;;;;;3.45;82.43;100578.06;5049140;28;20041;-73
2020/12/25 06:27:00;;;;;;;4.53;1.88;;;;;;;3.42;82.31;100583.22;5045948;28;20109;-73
2020/12/25 06:29:26;;;;;;;3.20;1.70;;;;;;;3.38;81.79;100586.63;5051776;28;20035;-73
2020/12/25 06:31:54;;;;;;;5.30;2.03;;;;;;;3.31;81.70;100595.13;5066963;28;20017;-73
2020/12/25 06:34:19;;;;;;;4.43;1.70;;;;;;;3.21;82.25;100595.75;5027631;28;20044;-73
2020/12/25 06:36:46;;;;;;;2.33;1.20;;;;;;;3.19;81.25;100594.81;5047946;28;20033;-73
2020/12/25 06:39:15;;;;;;;3.92;1.30;;;;;;;3.18;81.54;100599.16;5031357;28;20497;-72
2020/12/25 06:41:40;;;;;;;6.78;1.33;;;;;;;3.18;81.85;100608.72;5047527;28;20032;-74
2020/12/25 06:44:08;;;;;;;3.00;1.25;;;;;;;3.19;80.58;100616.56;5045417;28;20034;-73
2020/12/25 06:46:34;;;;;;;3.75;1.00;;;;;;;3.18;80.24;100616.53;5046381;28;20045;-73
2020/12/25 06:49:06;;;;;;;3.83;1.33;;;;;;;3.15;80.14;100624.28;5049221;28;20037;-73
2020/12/25 06:51:39;;;;;;;6.40;1.90;;;;;;;3.08;80.06;100624.13;5048690;28;20036;-73
2020/12/25 06:54:04;;;;;;;5.82;1.10;;;;;;;3.06;80.76;100631.00;5045277;28;20083;-73
2020/12/25 06:56:40;;;;;;;4.05;1.90;;;;;;;3.12;80.28;100634.63;5045801;28;20041;-72
2020/12/25 06:59:14;;;;;;;3.95;1.08;;;;;;;3.13;80.05;100649.44;5049040;28;20083;-73
2020/12/25 07:01:42;;;;;;;8.27;2.42;;;;;;;3.06;80.43;100651.88;5029563;28;20495;-73
2020/12/25 07:04:22;;;;;;;5.72;1.73;;;;;;;3.12;80.50;100656.38;5021279;28;20083;-73
2020/12/25 07:06:52;;;;;;;2.00;0.90;;;;;;;3.07;79.28;100661.47;5027819;28;20040;-73
2020/12/25 07:09:18;;;;;;;3.72;0.80;;;;;;;3.03;79.93;100666.56;5045445;28;20044;-73
2020/12/25 07:11:48;;;;;;;9.88;1.63;;;;;;;3.00;80.10;100667.34;5047504;28;20044;-73
2020/12/25 07:14:13;;;;;;;5.25;1.10;;;;;;;2.98;79.24;100669.03;5031083;28;20395;-73
2020/12/25 07:16:39;;;;;;;3.70;0.93;;;;;;;2.91;79.37;100671.44;5047337;28;20041;-73
2020/12/25 07:19:04;;;;;;;3.25;0.90;;;;;;;2.94;78.87;100677.63;5021034;28;20112;-73
2020/12/25 07:21:29;;;;;;;4.40;0.70;;;;;;;2.89;79.41;100689.66;5042867;28;20088;-73
2020/12/25 07:23:56;;;;;;;2.72;0.60;;;;;;;2.86;79.35;100697.41;5041896;28;20079;-73
2020/12/25 07:26:21;;;;;;;4.07;0.80;;;;;;;2.79;80.24;100692.84;5042353;28;20076;-73
2020/12/25 07:28:47;;;;;;;3.10;1.10;;;;;;;2.78;80.36;100699.78;5044632;28;20043;-73
2020/12/25 07:31:13;;;;;;;2.80;1.05;;;;;;;2.75;79.81;100701.41;5045533;28;20400;-73
2020/12/25 07:33:38;;;;;;;4.90;1.13;;;;;;;2.69;80.01;100709.06;5043926;28;20064;-73
2020/12/25 07:36:09;;;;;;;2.95;0.73;;;;;;;2.63;80.48;100708.06;5042167;28;20061;-73
2020/12/25 07:38:34;;;;;;;2.53;0.60;;;;;;;2.63;80.45;100708.06;5044579;28;20059;-73
2020/12/25 07:40:59;;;;;;;3.20;0.70;;;;;;;2.66;80.23;100712.47;5033322;28;20045;-73
2020/12/25 07:43:25;;;;;;;1.45;0.50;;;;;;;2.64;80.37;100720.22;5041103;28;20136;-73
2020/12/25 07:45:50;;;;;;;2.65;0.90;;;;;;;2.64;80.07;100722.84;5042256;28;20123;-73
2020/12/25 07:48:17;;;;;;;2.30;0.82;;;;;;;2.64;80.59;100725.44;5041908;28;20126;-72
2020/12/25 07:50:44;;;;;;;5.65;1.17;;;;;;;2.66;80.89;100722.91;5043581;28;20045;-73
2020/12/25 07:53:15;;;;;;;3.88;1.40;;;;;;;2.67;81.23;100721.16;5044960;28;20062;-72
2020/12/25 07:55:45;;;;;;;4.70;1.10;;;;;;;2.73;81.38;100723.97;5043383;28;20072;-73
2020/12/25 07:58:12;;;;;;;3.35;1.45;;;;;;;2.78;81.28;100732.81;5041708;28;20037;-73
2020/12/25 08:00:37;;;;;;;5.07;1.20;;;;;;;2.80;81.73;100738.91;5042577;28;20075;-74
2020/12/25 08:03:04;;;;;;;3.47;1.20;;;;;;;2.77;80.78;100741.44;5044725;28;20080;-74
2020/12/25 08:05:29;;;;;;;2.42;0.85;;;;;;;2.74;80.15;100739.63;5027037;28;20044;-74
2020/12/25 08:07:56;;;;;;;4.30;1.27;;;;;;;2.74;80.84;100750.06;5041471;28;20042;-74
2020/12/25 08:10:23;;;;;;;3.97;1.23;;;;;;;2.79;80.85;100742.38;5041402;28;20396;-74
2020/12/25 08:12:55;;;;;;;3.65;1.55;;;;;;;2.80;81.52;100751.94;5043766;28;20037;-74
2020/12/25 08:15:20;;;;;;;3.50;1.48;;;;;;;2.84;80.48;100753.81;5044882;28;20048;-74
2020/12/25 08:17:57;;;;;;;3.88;0.90;;;;;;;2.88;80.44;100760.88;5042392;28;20041;-74
2020/12/25 08:20:22;;;;;;;2.33;1.20;;;;;;;2.88;80.89;100755.66;5041261;28;20125;-74
2020/12/25 08:22:50;;;;;;;2.70;1.00;;;;;;;3.01;79.84;100773.44;5043388;28;20108;-74
2020/12/25 08:25:17;;;;;;;3.47;1.10;;;;;;;2.99;79.96;100764.69;5044561;28;20446;-74
2020/12/25 08:27:42;;;;;;;4.03;1.38;;;;;;;2.90;80.56;100777.44;5042598;28;20131;-74
2020/12/25 08:30:07;;;;;;;4.00;1.33;;;;;;;2.90;80.15;100771.34;5023495;28;20528;-74
2020/12/25 08:32:33;;;;;;;3.38;1.30;;;;;;;2.82;81.00;100779.81;5040591;28;20033;-74
2020/12/25 08:35:13;;;;;;;2.65;1.20;;;;;;;2.87;80.67;100785.19;5026585;28;20036;-74
2020/12/25 08:37:38;;;;;;;3.38;1.23;;;;;;;2.90;81.32;100785.25;5043175;28;20028;-74
2020/12/25 08:40:14;;;;;;;3.90;1.20;;;;;;;2.97;81.22;100789.81;5040981;28;20040;-74
2020/12/25 08:42:40;;;;;;;4.60;1.58;;;;;;;2.97;80.92;100789.81;5020933;28;20532;-74
2020/12/25 08:45:05;;;;;;;4.50;1.55;;;;;;;2.95;80.46;100794.09;5040705;28;20184;-74
2020/12/25 08:47:31;;;;;;;4.85;1.80;;;;;;;2.88;81.04;100802.59;5040914;28;20043;-74
2020/12/25 08:49:56;;;;;;;6.22;2.35;;;;;;;2.81;80.95;100796.31;5026350;28;20060;-74
2020/12/25 08:52:22;;;;;;;4.88;2.10;;;;;;;2.86;80.90;100806.88;5025968;28;20083;-74
2020/12/25 08:54:57;;;;;;;4.85;2.22;;;;;;;2.76;81.26;100807.47;5041271;28;20029;-74
2020/12/25 08:57:23;;;;;;;4.40;1.60;;;;;;;2.85;80.24;100810.31;5006522;28;20033;-74
2020/12/25 09:00:00;;;;;;;6.82;2.40;;;;;;;2.82;80.80;100824.16;5043055;28;20078;-74
2020/12/25 09:02:25;;;;;;;6.18;1.48;;;;;;;2.87;80.71;100826.91;5043611;28;20040;-74
2020/12/25 09:04:50;;;;;;;3.90;1.73;;;;;;;2.95;80.61;100832.34;5040848;28;20033;-74
2020/12/25 09:07:16;;;;;;;4.30;1.40;;;;;;;3.00;80.03;100833.34;5040307;28;20076;-74
2020/12/25 09:09:41;;;;;;;3.72;1.92;;;;;;;3.01;79.76;100829.91;5037346;28;20068;-74
2020/12/25 09:12:06;;;;;;;5.10;1.73;;;;;;;2.96;79.56;100827.19;5040129;28;20033;-74
2020/12/25 09:14:32;;;;;;;3.50;1.35;;;;;;;2.96;79.94;100835.00;5040583;28;20046;-74
2020/12/25 09:16:57;;;;;;;4.93;1.38;;;;;;;3.02;78.84;100850.81;5043711;28;20150;-74
2020/12/25 09:19:22;;;;;;;3.63;1.20;;;;;;;2.98;79.20;100855.88;5025751;28;20399;-74
2020/12/25 09:21:48;;;;;;;4.30;1.63;;;;;;;2.98;79.53;100855.88;5040710;28;20409;-74
2020/12/25 09:24:13;;;;;;;4.47;1.92;;;;;;;2.95;80.27;100851.47;5039748;28;20480;-74
2020/12/25 09:26:38;;;;;;;3.13;1.20;;;;;;;3.06;79.47;100864.81;5041245;28;20546;-74
2020/12/25 09:29:04;;;;;;;4.60;1.50;;;;;;;3.02;79.80;100869.06;5025721;28;20041;-74
2020/12/25 09:31:29;;;;;;;3.67;1.80;;;;;;;3.03;79.48;100865.59;5025685;28;20046;-74
2020/12/25 09:33:54;;;;;;;6.05;2.03;;;;;;;3.06;80.13;100865.69;5039660;28;20108;-74
2020/12/25 09:36:19;;;;;;;3.35;1.20;;;;;;;3.17;78.99;100875.56;5039863;28;20472;-74
2020/12/25 09:38:45;;;;;;;3.63;1.17;;;;;;;3.12;78.31;100866.72;5025788;28;20570;-74
2020/12/25 09:41:13;;;;;;;2.60;1.10;;;;;;;2.99;79.29;100861.16;5043297;28;20067;-74
2020/12/25 09:43:39;;;;;;;4.40;1.40;;;;;;;3.07;78.95;100871.81;5023744;28;20061;-74
2020/12/25 09:46:04;;;;;;;3.15;1.27;;;;;;;2.93;79.70;100874.00;5039683;28;20447;-74
2020/12/25 09:48:30;;;;;;;4.38;1.50;;;;;;;2.87;80.14;100879.03;5039712;28;20033;-74
2020/12/25 09:50:55;;;;;;;4.40;1.60;;;;;;;2.98;79.75;100882.84;5025105;28;20037;-74
2020/12/25 09:53:20;;;;;;;4.68;1.40;;;;;;;2.96;80.02;100884.53;5042903;28;20041;-74
2020/12/25 09:55:48;;;;;;;2.42;1.33;;;;;;;2.98;80.25;100888.06;5022830;28;20072;-74
2020/12/25 09:58:13;;;;;;;3.67;1.10;;;;;;;3.04;79.55;100890.00;5016551;28;20041;-74
2020/12/25 10:00:39;;;;;;;3.80;1.30;;;;;;;3.00;79.06;100886.38;5039435;28;20118;-74
2020/12/25 10:03:04;;;;;;;5.00;1.42;;;;;;;2.95;79.90;100893.19;5039260;28;20037;-74
2020/12/25 10:05:30;;;;;;;3.90;1.23;;;;;;;2.94;79.85;100890.56;5034839;28;20037;-74
2020/12/25 10:07:55;;;;;;;4.45;1.38;;;;;;;2.89;79.72;100893.00;5039498;28;20037;-74
2020/12/25 10:10:22;;;;;;;5.07;1.90;;;;;;;2.95;80.83;100901.00;5039442;28;20044;-74
2020/12/25 10:12:48;;;;;;;2.67;1.67;;;;;;;2.97;79.60;100896.72;5004245;28;20025;-74
2020/12/25 10:15:14;;;;;;;3.20;1.23;;;;;;;2.94;79.24;100901.84;5005301;28;20084;-74
2020/12/25 10:17:40;;;;;;;4.80;1.70;;;;;;;2.91;80.07;100906.06;5040785;28;20029;-74
2020/12/25 10:20:05;;;;;;;6.05;1.65;;;;;;;3.04;79.40;100901.31;5043243;28;20598;-74
2020/12/25 10:22:30;;;;;;;3.67;1.58;;;;;;;3.06;79.25;100902.22;5024606;28;20107;-74
2020/12/25 10:24:56;;;;;;;4.45;1.52;;;;;;;3.07;78.89;100904.00;5030114;28;20052;-74
2020/12/25 10:27:21;;;;;;;3.60;1.27;;;;;;;3.14;79.35;100914.59;5037123;28;20043;-74
2020/12/25 10:29:47;;;;;;;3.20;1.20;;;;;;;3.20;78.48;100914.81;5040262;28;20040;-74
2020/12/25 10:32:12;;;;;;;2.60;1.10;;;;;;;3.20;78.49;100904.38;5039041;28;20404;-74
2020/12/25 10:34:37;;;;;;;3.65;1.48;;;;;;;3.29;78.38;100908.13;5019187;28;20045;-74
2020/12/25 10:37:03;;;;;;;4.75;1.27;;;;;;;3.34;78.06;100908.25;5039333;28;20030;-74
2020/12/25 10:39:28;;;;;;;4.00;1.08;;;;;;;3.39;77.27;100901.44;5039187;28;20075;-74
2020/12/25 10:41:53;;;;;;;3.50;1.10;;;;;;;3.34;76.76;100902.16;5042349;28;20040;-74
2020/12/25 10:44:19;;;;;;;2.75;1.10;;;;;;;3.26;77.62;100900.19;5024484;28;20047;-74
2020/12/25 10:46:44;;;;;;;3.70;1.52;;;;;;;3.32;77.76;100904.72;5022675;28;20096;-74
2020/12/25 10:49:09;;;;;;;3.95;1.17;;;;;;;3.40;76.57;100907.53;5039027;28;20041;-74
2020/12/25 10:51:35;;;;;;;3.83;1.00;;;;;;;3.34;76.82;100908.25;5039744;28;20143;-74
2020/12/25 10:54:00;;;;;;;1.80;0.73;;;;;;;3.31;76.41;100915.13;5042139;28;20041;-74
2020/12/25 10:56:28;;;;;;;3.33;1.40;;;;;;;3.34;77.33;100910.88;5044729;28;20048;-74
2020/12/25 10:58:54;;;;;;;4.10;1.10;;;;;;;3.41;75.63;100905.00;5042726;28;20037;-74
2020/12/25 11:01:20;;;;;;;2.03;0.88;;;;;;;3.37;76.42;100902.25;5042750;28;20052;-74
2020/12/25 11:03:46;;;;;;;3.55;1.27;;;;;;;3.46;75.42;100897.31;5044291;28;20041;-74
2020/12/25 11:06:11;;;;;;;3.78;1.30;;;;;;;3.47;75.12;100896.44;5046192;28;20037;-74
2020/12/25 11:08:36;;;;;;;4.20;1.33;;;;;;;3.54;74.79;100905.31;5045110;28;20052;-74
2020/12/25 11:11:01;;;;;;;4.25;1.08;;;;;;;3.56;75.96;100903.66;5034269;28;20045;-74
2020/12/25 11:13:27;;;;;;;4.20;1.10;;;;;;;3.65;75.35;100896.09;5041996;28;20048;-74
2020/12/25 11:15:52;;;;;;;3.65;1.20;;;;;;;3.67;74.76;100899.63;5042730;28;20034;-74
2020/12/25 11:18:17;;;;;;;2.88;1.13;;;;;;;3.69;75.51;100901.44;5042279;28;20033;-74
2020/12/25 11:20:43;;;;;;;5.20;1.25;;;;;;;3.73;74.63;100898.06;5039784;28;20033;-74
2020/12/25 11:23:08;;;;;;;2.72;1.00;;;;;;;3.72;74.96;100901.53;5042104;28;20048;-74
2020/12/25 11:25:37;;;;;;;2.83;1.00;;;;;;;3.69;74.62;100901.44;5042838;28;20099;-74
2020/12/25 11:28:03;;;;;;;3.70;0.85;;;;;;;3.45;76.34;100903.34;5045752;28;20617;-74